createdAt,value
2018-12-31T00:02:06.137Z,32.33
2018-12-31T00:04:32.676Z,30.70
2018-12-31T00:06:59.120Z,30.23
2018-12-31T00:09:25.587Z,31.77
2018-12-31T00:11:52.631Z,33.20
2018-12-31T00:14:19.934Z,34.33
2018-12-31T00:16:46.435Z,37.80
2018-12-31T00:19:13.155Z,38.43
2018-12-31T00:21:39.543Z,37.40
2018-12-31T00:24:06.783Z,39.33
2018-12-31T00:26:33.391Z,39.57
2018-12-31T00:29:00.172Z,37.77
2018-12-31T00:31:26.987Z,37.13
2018-12-31T00:33:53.822Z,36.03
2018-12-31T00:36:20.534Z,34.60
2018-12-31T00:38:47.130Z,31.40
2018-12-31T00:41:14.184Z,32.20
2018-12-31T00:43:40.911Z,32.87
2018-12-31T00:46:07.672Z,31.83
2018-12-31T00:48:34.068Z,32.03
2018-12-31T00:51:00.915Z,31.20
2018-12-31T00:53:27.777Z,32.27
2018-12-31T00:55:54.349Z,29.63
2018-12-31T00:58:21.596Z,29.67
2018-12-31T01:00:48.305Z,29.63
2018-12-31T01:03:15.079Z,28.97
2018-12-31T01:05:41.565Z,28.13
2018-12-31T01:08:08.320Z,28.10
2018-12-31T01:10:34.705Z,28.67
2018-12-31T01:13:01.133Z,29.00
2018-12-31T01:15:27.504Z,30.60
2018-12-31T01:17:54.211Z,28.83
2018-12-31T01:20:20.731Z,30.03
2018-12-31T01:22:47.602Z,29.17
2018-12-31T01:25:14.276Z,30.70
2018-12-31T01:27:42.894Z,28.33
2018-12-31T01:30:09.421Z,27.37
2018-12-31T01:32:36.167Z,28.27
2018-12-31T01:35:02.981Z,27.73
2018-12-31T01:37:29.363Z,26.53
2018-12-31T01:39:55.771Z,26.50
2018-12-31T01:42:22.156Z,26.70
2018-12-31T01:44:49.594Z,25.30
2018-12-31T01:47:17.982Z,25.60
2018-12-31T01:49:44.803Z,27.17
2018-12-31T01:52:11.613Z,24.80
2018-12-31T01:54:38.376Z,25.50
2018-12-31T01:57:05.264Z,22.70
2018-12-31T01:59:32.575Z,23.07
2018-12-31T02:01:59.280Z,23.30
2018-12-31T02:04:26.046Z,26.67
2018-12-31T02:06:52.815Z,24.70
2018-12-31T02:09:19.233Z,25.13
2018-12-31T02:11:45.697Z,24.00
2018-12-31T02:14:12.215Z,24.73
2018-12-31T02:16:39.604Z,25.33
2018-12-31T02:19:05.915Z,25.17
2018-12-31T02:21:32.796Z,26.07
2018-12-31T02:23:59.606Z,26.20
2018-12-31T02:26:26.330Z,26.10
2018-12-31T02:28:53.207Z,25.30
2018-12-31T02:31:19.674Z,23.63
2018-12-31T02:33:46.712Z,25.87
2018-12-31T02:36:13.078Z,27.27
2018-12-31T02:38:39.894Z,27.57
2018-12-31T02:41:06.579Z,28.90
2018-12-31T02:43:33.534Z,27.20
2018-12-31T02:46:00.448Z,28.27
2018-12-31T02:48:27.334Z,28.37
2018-12-31T02:50:54.176Z,29.90
2018-12-31T02:53:21.770Z,29.80
2018-12-31T02:55:48.304Z,32.70
2018-12-31T02:58:14.725Z,28.53
2018-12-31T03:00:41.541Z,28.50
2018-12-31T03:03:08.009Z,28.80
2018-12-31T03:05:34.880Z,27.97
2018-12-31T03:08:01.254Z,29.27
2018-12-31T03:10:28.083Z,26.97
2018-12-31T03:12:54.549Z,28.30
2018-12-31T03:15:21.438Z,28.40
2018-12-31T03:17:48.521Z,27.90
2018-12-31T03:20:15.724Z,27.20
2018-12-31T03:22:42.196Z,28.93
2018-12-31T03:25:08.899Z,27.27
2018-12-31T03:27:35.821Z,28.53
2018-12-31T03:30:02.533Z,28.10
2018-12-31T03:32:28.883Z,27.33
2018-12-31T03:34:56.656Z,27.77
2018-12-31T03:37:23.446Z,26.77
2018-12-31T03:39:50.044Z,26.43
2018-12-31T03:42:18.448Z,26.77
2018-12-31T03:44:45.280Z,28.40
2018-12-31T03:47:12.387Z,28.00
2018-12-31T03:49:39.668Z,26.37
2018-12-31T03:52:06.118Z,26.17
2018-12-31T03:54:32.580Z,26.73
2018-12-31T03:57:00.779Z,24.70
2018-12-31T03:59:27.164Z,25.70
2018-12-31T04:01:53.981Z,26.17
2018-12-31T04:04:20.329Z,26.83
2018-12-31T04:06:47.863Z,27.20
2018-12-31T04:09:14.223Z,26.63
2018-12-31T04:11:40.649Z,26.50
2018-12-31T04:14:07.467Z,26.67
2018-12-31T04:16:33.901Z,25.80
2018-12-31T04:19:00.259Z,28.57
2018-12-31T04:21:27.056Z,28.17
2018-12-31T04:23:53.532Z,28.93
2018-12-31T04:26:20.292Z,28.00
2018-12-31T04:28:48.076Z,27.13
2018-12-31T04:31:14.898Z,29.90
2018-12-31T04:33:41.282Z,27.90
2018-12-31T04:36:08.053Z,29.73
2018-12-31T04:38:34.778Z,29.10
2018-12-31T04:41:01.307Z,27.67
2018-12-31T04:43:28.025Z,28.67
2018-12-31T04:45:54.786Z,27.80
2018-12-31T04:48:21.176Z,29.83
2018-12-31T04:50:47.995Z,27.50
2018-12-31T04:53:14.735Z,27.33
2018-12-31T04:55:44.556Z,30.57
2018-12-31T04:58:10.028Z,29.40
2018-12-31T05:00:36.445Z,29.30
2018-12-31T05:03:02.948Z,28.83
2018-12-31T05:05:29.794Z,28.10
2018-12-31T05:07:58.434Z,29.30
2018-12-31T05:10:24.846Z,29.33
2018-12-31T05:12:51.223Z,35.20
2018-12-31T05:15:17.831Z,33.80
2018-12-31T05:17:44.587Z,34.77
2018-12-31T05:20:11.066Z,30.60
2018-12-31T05:22:39.721Z,31.57
2018-12-31T05:25:06.095Z,30.73
2018-12-31T05:27:32.855Z,33.27
2018-12-31T05:30:00.646Z,32.70
2018-12-31T05:32:27.067Z,32.53
2018-12-31T05:34:53.808Z,36.27
2018-12-31T05:37:20.617Z,36.10
2018-12-31T05:39:46.980Z,35.53
2018-12-31T05:42:13.373Z,37.13
2018-12-31T05:44:39.782Z,35.80
2018-12-31T05:47:06.591Z,36.63
2018-12-31T05:49:33.322Z,38.07
2018-12-31T05:51:59.689Z,35.47
2018-12-31T05:54:26.124Z,36.17
2018-12-31T05:56:52.574Z,34.53
2018-12-31T05:59:18.988Z,37.57
2018-12-31T06:01:46.148Z,35.70
2018-12-31T06:04:12.861Z,35.73
2018-12-31T06:06:39.578Z,34.27
2018-12-31T06:09:06.353Z,32.73
2018-12-31T06:11:32.835Z,32.33
2018-12-31T06:13:59.600Z,31.53
2018-12-31T06:16:26.129Z,31.90
2018-12-31T06:18:52.919Z,30.47
2018-12-31T06:21:19.450Z,29.20
2018-12-31T06:23:45.819Z,29.83
2018-12-31T06:26:12.219Z,29.73
2018-12-31T06:28:38.579Z,31.77
2018-12-31T06:31:05.428Z,29.60
2018-12-31T06:33:32.240Z,30.53
2018-12-31T06:35:58.589Z,30.30
2018-12-31T06:38:25.387Z,31.23
2018-12-31T06:40:51.745Z,35.93
2018-12-31T06:43:18.148Z,34.80
2018-12-31T06:45:44.648Z,32.17
2018-12-31T06:48:11.053Z,29.53
2018-12-31T06:50:37.790Z,29.60
2018-12-31T06:53:05.091Z,29.97
2018-12-31T06:55:31.498Z,28.17
2018-12-31T06:57:57.852Z,29.83
2018-12-31T07:00:24.367Z,27.67
2018-12-31T07:02:51.129Z,29.00
2018-12-31T07:05:17.509Z,29.33
2018-12-31T07:07:45.422Z,29.20
2018-12-31T07:10:12.160Z,30.40
2018-12-31T07:12:39.378Z,31.40
2018-12-31T07:15:05.897Z,29.17
2018-12-31T07:17:32.323Z,29.63
2018-12-31T07:19:58.682Z,30.10
2018-12-31T07:22:25.111Z,30.27
2018-12-31T07:24:51.856Z,30.03
2018-12-31T07:27:18.279Z,33.43
2018-12-31T07:29:44.692Z,31.73
2018-12-31T07:32:11.484Z,32.10
2018-12-31T07:34:38.308Z,31.00
2018-12-31T07:37:05.109Z,28.93
2018-12-31T07:39:31.640Z,29.27
2018-12-31T07:41:58.490Z,29.50
2018-12-31T07:44:25.249Z,27.57
2018-12-31T07:46:51.658Z,27.13
2018-12-31T07:49:18.380Z,26.83
2018-12-31T07:51:45.116Z,27.97
2018-12-31T07:54:11.601Z,27.23
2018-12-31T07:56:38.381Z,28.23
2018-12-31T07:59:04.874Z,27.10
2018-12-31T08:01:31.578Z,28.73
2018-12-31T08:03:57.982Z,28.60
2018-12-31T08:06:25.064Z,29.60
2018-12-31T08:08:51.437Z,28.43
2018-12-31T08:11:17.854Z,28.73
2018-12-31T08:13:44.558Z,27.83
2018-12-31T08:16:10.933Z,28.17
2018-12-31T08:18:37.374Z,28.73
2018-12-31T08:21:03.774Z,26.47
2018-12-31T08:23:30.202Z,29.13
2018-12-31T08:25:56.934Z,27.57
2018-12-31T08:28:23.322Z,26.80
2018-12-31T08:30:50.080Z,27.93
2018-12-31T08:33:16.506Z,27.37
2018-12-31T08:35:42.855Z,26.83
2018-12-31T08:38:09.618Z,28.23
2018-12-31T08:40:36.011Z,27.63
2018-12-31T08:43:02.527Z,27.20
2018-12-31T08:45:29.236Z,28.17
2018-12-31T08:47:56.110Z,26.93
2018-12-31T08:50:22.502Z,27.27
2018-12-31T08:52:48.941Z,28.63
2018-12-31T08:55:16.115Z,28.43
2018-12-31T08:57:42.661Z,27.63
2018-12-31T09:00:09.183Z,29.37
2018-12-31T09:02:36.725Z,29.90
2018-12-31T09:05:04.465Z,28.67
2018-12-31T09:07:31.146Z,30.87
2018-12-31T09:09:58.121Z,29.87
2018-12-31T09:12:24.618Z,31.80
2018-12-31T09:14:51.040Z,29.87
2018-12-31T09:17:17.994Z,30.33
2018-12-31T09:19:45.676Z,31.00
2018-12-31T09:22:12.155Z,30.40
2018-12-31T09:24:44.643Z,31.80
2018-12-31T09:27:07.051Z,31.73
2018-12-31T09:29:33.861Z,30.13
2018-12-31T09:32:00.415Z,30.67
2018-12-31T09:34:27.285Z,30.10
2018-12-31T09:36:54.308Z,31.47
2018-12-31T09:39:22.206Z,29.40
2018-12-31T09:41:49.352Z,31.50
2018-12-31T09:44:15.898Z,31.60
2018-12-31T09:46:42.904Z,30.43
2018-12-31T09:49:10.197Z,29.37
2018-12-31T09:51:36.708Z,30.23
2018-12-31T09:54:03.315Z,33.30
2018-12-31T09:56:29.865Z,32.87
2018-12-31T09:58:56.932Z,31.70
2018-12-31T10:01:23.374Z,30.23
2018-12-31T10:03:51.092Z,30.23
2018-12-31T10:06:18.638Z,27.80
2018-12-31T10:08:49.355Z,27.03
2018-12-31T10:11:15.116Z,27.77
2018-12-31T10:13:42.820Z,28.43
2018-12-31T10:16:09.599Z,27.30
2018-12-31T10:18:36.683Z,27.30
2018-12-31T10:21:03.147Z,28.67
2018-12-31T10:23:29.560Z,26.33
2018-12-31T10:25:56.354Z,28.13
2018-12-31T10:28:24.980Z,27.07
2018-12-31T10:30:51.388Z,27.47
2018-12-31T10:33:18.103Z,27.70
2018-12-31T10:35:44.954Z,28.47
2018-12-31T10:38:11.687Z,27.27
2018-12-31T10:40:38.084Z,27.60
2018-12-31T10:43:04.561Z,26.67
2018-12-31T10:45:31.003Z,26.93
2018-12-31T10:47:57.716Z,27.13
2018-12-31T10:50:24.265Z,25.50
2018-12-31T10:52:50.846Z,26.23
2018-12-31T10:55:17.244Z,28.00
2018-12-31T10:57:43.632Z,26.97
2018-12-31T11:00:10.540Z,25.87
2018-12-31T11:02:36.945Z,24.50
2018-12-31T11:05:04.628Z,25.93
2018-12-31T11:07:30.995Z,25.43
2018-12-31T11:09:57.762Z,26.27
2018-12-31T11:12:24.672Z,26.57
2018-12-31T11:14:51.062Z,26.77
2018-12-31T11:17:17.452Z,26.50
2018-12-31T11:19:43.987Z,24.97
2018-12-31T11:22:10.401Z,25.30
2018-12-31T11:24:37.707Z,24.63
2018-12-31T11:27:04.329Z,25.20
2018-12-31T11:29:30.737Z,26.67
2018-12-31T11:31:57.329Z,28.63
2018-12-31T11:34:23.696Z,32.17
2018-12-31T11:36:50.488Z,31.17
2018-12-31T11:39:17.211Z,31.43
2018-12-31T11:41:43.655Z,30.90
2018-12-31T11:44:10.036Z,32.80
2018-12-31T11:46:36.458Z,28.60
2018-12-31T11:49:03.177Z,29.93
2018-12-31T11:51:29.800Z,28.63
2018-12-31T11:53:56.318Z,31.10
2018-12-31T11:56:23.061Z,29.77
2018-12-31T11:58:49.591Z,29.57
2018-12-31T12:01:16.457Z,29.70
2018-12-31T12:03:43.240Z,29.80
2018-12-31T12:06:09.714Z,28.20
2018-12-31T12:08:36.205Z,25.03
2018-12-31T12:11:02.849Z,28.63
2018-12-31T12:13:29.231Z,29.03
2018-12-31T12:15:57.363Z,27.00
2018-12-31T12:18:23.937Z,27.27
2018-12-31T12:20:50.463Z,25.13
2018-12-31T12:23:18.379Z,24.30
2018-12-31T12:25:45.141Z,23.13
2018-12-31T12:28:11.521Z,23.33
2018-12-31T12:30:37.947Z,23.00
2018-12-31T12:33:04.440Z,25.07
2018-12-31T12:35:30.901Z,24.60
2018-12-31T12:37:57.505Z,23.93
2018-12-31T12:40:23.906Z,24.67
2018-12-31T12:42:50.308Z,24.77
2018-12-31T12:45:16.724Z,22.47
2018-12-31T12:47:43.451Z,23.90
2018-12-31T12:50:10.171Z,24.30
2018-12-31T12:52:36.928Z,24.70
2018-12-31T12:55:03.494Z,23.90
2018-12-31T12:57:30.359Z,24.07
2018-12-31T12:59:56.786Z,23.83
2018-12-31T13:02:26.151Z,23.63
2018-12-31T13:04:53.774Z,22.50
2018-12-31T13:07:20.142Z,25.83
2018-12-31T13:09:47.921Z,24.03
2018-12-31T13:12:14.794Z,24.07
2018-12-31T13:14:41.292Z,24.47
2018-12-31T13:17:07.837Z,25.33
2018-12-31T13:19:34.199Z,25.30
2018-12-31T13:22:00.723Z,24.57
2018-12-31T13:24:27.625Z,26.90
2018-12-31T13:26:54.039Z,24.83
2018-12-31T13:29:20.680Z,23.37
2018-12-31T13:31:47.478Z,24.77
2018-12-31T13:34:14.004Z,24.00
2018-12-31T13:36:42.770Z,23.50
2018-12-31T13:39:09.114Z,24.57
2018-12-31T13:41:35.814Z,22.27
2018-12-31T13:44:02.237Z,23.83
2018-12-31T13:46:28.605Z,24.03
2018-12-31T13:48:55.069Z,22.17
2018-12-31T13:51:22.109Z,23.80
2018-12-31T13:53:49.312Z,23.57
2018-12-31T13:56:15.736Z,22.07
2018-12-31T13:58:42.198Z,22.30
2018-12-31T14:01:08.789Z,22.37
2018-12-31T14:03:35.339Z,23.37
2018-12-31T14:06:02.069Z,22.43
2018-12-31T14:08:28.919Z,21.50
2018-12-31T14:10:55.463Z,21.43
2018-12-31T14:13:21.812Z,21.67
2018-12-31T14:15:48.223Z,23.50
2018-12-31T14:18:14.622Z,22.77
2018-12-31T14:20:41.411Z,22.03
2018-12-31T14:23:08.207Z,23.97
2018-12-31T14:25:34.580Z,24.63
2018-12-31T14:28:01.044Z,22.40
2018-12-31T14:30:27.651Z,23.53
2018-12-31T14:32:54.110Z,23.47
2018-12-31T14:35:20.634Z,24.10
2018-12-31T14:37:47.683Z,24.10
2018-12-31T14:40:14.166Z,24.37
2018-12-31T14:42:40.589Z,23.63
2018-12-31T14:45:07.196Z,22.70
2018-12-31T14:47:33.589Z,23.60
2018-12-31T14:49:59.997Z,22.77
2018-12-31T14:52:26.640Z,24.43
2018-12-31T14:54:53.129Z,25.47
2018-12-31T14:57:19.858Z,24.30
2018-12-31T14:59:46.315Z,24.53
2018-12-31T15:02:12.687Z,24.37
2018-12-31T15:04:56.324Z,23.90
2018-12-31T15:07:23.938Z,25.83
2018-12-31T15:09:50.675Z,24.47
2018-12-31T15:12:17.106Z,24.53
2018-12-31T15:14:43.467Z,26.00
2018-12-31T15:17:09.975Z,26.50
2018-12-31T15:19:36.455Z,25.27
2018-12-31T15:22:03.322Z,25.37
2018-12-31T15:24:29.831Z,25.53
2018-12-31T15:26:56.298Z,26.07
2018-12-31T15:29:23.071Z,27.70
2018-12-31T15:31:49.802Z,27.63
2018-12-31T15:34:16.858Z,26.60
2018-12-31T15:36:43.604Z,26.70
2018-12-31T15:39:10.352Z,26.03
2018-12-31T15:41:36.765Z,26.30
2018-12-31T15:44:03.221Z,26.33
2018-12-31T15:46:29.608Z,25.53
2018-12-31T15:48:56.299Z,28.90
2018-12-31T15:51:22.801Z,30.87
2018-12-31T15:53:49.236Z,31.30
2018-12-31T15:56:15.614Z,27.30
2018-12-31T15:58:43.391Z,28.40
2018-12-31T16:01:10.122Z,26.17
2018-12-31T16:03:37.037Z,27.67
2018-12-31T16:06:03.619Z,28.03
2018-12-31T16:08:30.034Z,26.73
2018-12-31T16:10:56.398Z,27.23
2018-12-31T16:13:23.173Z,27.00
2018-12-31T16:15:49.561Z,27.93
2018-12-31T16:18:16.064Z,27.20
2018-12-31T16:20:42.426Z,26.87
2018-12-31T16:23:08.868Z,26.47
2018-12-31T16:25:35.328Z,27.40
2018-12-31T16:28:01.720Z,26.77
2018-12-31T16:30:28.628Z,31.47
2018-12-31T16:32:55.057Z,30.67
2018-12-31T16:35:21.423Z,31.43
2018-12-31T16:37:47.890Z,29.97
2018-12-31T16:40:15.577Z,28.00
2018-12-31T16:42:41.899Z,29.63
2018-12-31T16:45:08.510Z,30.37
2018-12-31T16:47:34.896Z,28.77
2018-12-31T16:50:01.851Z,32.10
2018-12-31T16:52:28.306Z,29.90
2018-12-31T16:54:54.736Z,30.53
2018-12-31T16:57:21.199Z,30.63
2018-12-31T16:59:47.572Z,30.40
2018-12-31T17:02:13.987Z,29.13
2018-12-31T17:04:40.596Z,29.70
2018-12-31T17:07:06.957Z,31.53
2018-12-31T17:09:33.737Z,30.70
2018-12-31T17:12:00.074Z,29.90
2018-12-31T17:14:26.486Z,30.33
2018-12-31T17:16:52.844Z,29.87
2018-12-31T17:19:19.247Z,30.30
2018-12-31T17:21:45.611Z,29.83
2018-12-31T17:24:12.025Z,31.67
2018-12-31T17:26:38.419Z,31.63
2018-12-31T17:29:04.996Z,30.27
2018-12-31T17:31:31.363Z,26.50
2018-12-31T17:33:57.790Z,25.43
2018-12-31T17:36:25.578Z,24.53
2018-12-31T17:38:52.014Z,23.17
2018-12-31T17:41:18.392Z,22.47
2018-12-31T17:43:44.862Z,20.20
2018-12-31T17:46:11.288Z,18.73
2018-12-31T17:48:37.662Z,20.07
2018-12-31T17:51:04.954Z,19.60
2018-12-31T17:53:31.497Z,19.40
2018-12-31T17:55:57.852Z,18.43
2018-12-31T17:58:24.253Z,17.90
2018-12-31T18:00:50.679Z,17.67
2018-12-31T18:03:17.419Z,19.80
2018-12-31T18:05:43.824Z,19.23
2018-12-31T18:08:10.203Z,19.53
2018-12-31T18:10:36.981Z,19.43
2018-12-31T18:13:03.451Z,17.53
2018-12-31T18:15:29.981Z,18.47
2018-12-31T18:17:56.357Z,17.83
2018-12-31T18:20:22.835Z,18.00
2018-12-31T18:22:49.198Z,18.57
2018-12-31T18:25:16.867Z,19.27
2018-12-31T18:27:43.204Z,22.03
2018-12-31T18:30:09.609Z,26.10
2018-12-31T18:32:36.354Z,24.73
2018-12-31T18:35:03.294Z,23.87
2018-12-31T18:37:29.644Z,24.00
2018-12-31T18:39:58.120Z,23.03
2018-12-31T18:42:24.346Z,22.60
2018-12-31T18:44:50.765Z,21.50
2018-12-31T18:47:17.127Z,22.03
2018-12-31T18:49:43.555Z,21.60
2018-12-31T18:52:10.319Z,22.20
2018-12-31T18:54:37.091Z,21.47
2018-12-31T18:57:03.486Z,22.63
2018-12-31T18:59:29.918Z,23.23
2018-12-31T19:01:56.473Z,22.43
2018-12-31T19:04:22.889Z,24.63
2018-12-31T19:06:50.769Z,23.50
2018-12-31T19:09:17.234Z,23.53
2018-12-31T19:11:44.010Z,24.80
2018-12-31T19:14:10.372Z,24.10
2018-12-31T19:16:36.919Z,24.43
2018-12-31T19:19:03.406Z,24.67
2018-12-31T19:21:29.823Z,25.30
2018-12-31T19:23:56.320Z,25.00
2018-12-31T19:26:22.747Z,25.60
2018-12-31T19:28:49.200Z,26.30
2018-12-31T19:31:15.595Z,27.23
2018-12-31T19:33:41.962Z,28.43
2018-12-31T19:36:08.360Z,30.03
2018-12-31T19:38:35.319Z,29.57
2018-12-31T19:41:01.852Z,29.47
2018-12-31T19:43:28.293Z,29.83
2018-12-31T19:45:54.694Z,30.00
2018-12-31T19:48:21.059Z,30.33
2018-12-31T19:50:47.493Z,31.80
2018-12-31T19:53:14.299Z,30.23
2018-12-31T19:55:40.892Z,31.00
2018-12-31T19:58:07.349Z,32.50
2018-12-31T20:00:33.799Z,33.87
2018-12-31T20:03:00.139Z,34.47
2018-12-31T20:05:26.574Z,32.97
2018-12-31T20:07:52.940Z,34.80
2018-12-31T20:10:20.023Z,35.30
2018-12-31T20:12:48.302Z,34.87
2018-12-31T20:15:14.693Z,35.73
2018-12-31T20:17:41.159Z,35.10
2018-12-31T20:20:07.885Z,34.73
2018-12-31T20:22:37.110Z,32.77
2018-12-31T20:25:17.285Z,32.57
2018-12-31T20:27:43.780Z,30.90
2018-12-31T20:30:10.148Z,30.83
2018-12-31T20:32:36.575Z,33.37
2018-12-31T20:35:03.138Z,32.20
2018-12-31T20:37:29.951Z,32.80
2018-12-31T20:39:56.695Z,32.13
2018-12-31T20:42:23.203Z,32.47
2018-12-31T20:44:50.061Z,32.27
2018-12-31T20:47:16.448Z,31.17
2018-12-31T20:49:44.510Z,35.60
2018-12-31T20:52:12.104Z,32.17
2018-12-31T20:54:38.612Z,34.93
2018-12-31T20:57:05.012Z,28.73
2018-12-31T20:59:31.363Z,28.80
2018-12-31T21:01:57.868Z,29.13
2018-12-31T21:04:25.947Z,29.87
2018-12-31T21:06:53.582Z,44.73
2018-12-31T21:09:20.396Z,38.27
2018-12-31T21:11:46.804Z,28.90
2018-12-31T21:14:13.174Z,33.63
2018-12-31T21:16:39.621Z,29.97
2018-12-31T21:19:06.007Z,27.60
2018-12-31T21:21:32.500Z,28.80
2018-12-31T21:23:58.901Z,30.87
2018-12-31T21:26:25.605Z,29.57
2018-12-31T21:28:51.966Z,29.03
2018-12-31T21:31:18.482Z,30.20
2018-12-31T21:33:45.793Z,31.10
2018-12-31T21:36:12.184Z,30.50
2018-12-31T21:38:39.060Z,31.73
2018-12-31T21:41:05.558Z,32.20
2018-12-31T21:43:31.954Z,33.63
2018-12-31T21:45:58.301Z,31.00
2018-12-31T21:48:24.700Z,32.77
2018-12-31T21:50:51.134Z,35.07
2018-12-31T21:53:17.562Z,32.57
2018-12-31T21:55:43.919Z,34.63
2018-12-31T21:58:10.329Z,34.87
2018-12-31T22:00:36.735Z,36.30
2018-12-31T22:03:03.266Z,34.70
2018-12-31T22:05:29.631Z,35.00
2018-12-31T22:07:56.157Z,33.77
2018-12-31T22:10:22.527Z,36.23
2018-12-31T22:12:49.227Z,37.90
2018-12-31T22:15:15.623Z,37.67
2018-12-31T22:17:42.071Z,38.40
2018-12-31T22:20:08.666Z,38.37
2018-12-31T22:22:35.053Z,38.30
2018-12-31T22:25:01.490Z,37.23
2018-12-31T22:27:28.257Z,36.80
2018-12-31T22:29:55.017Z,36.53
2018-12-31T22:32:21.769Z,38.20
2018-12-31T22:34:48.154Z,37.13
2018-12-31T22:37:14.674Z,40.80
2018-12-31T22:39:41.113Z,38.60
2018-12-31T22:42:07.491Z,39.43
2018-12-31T22:44:34.147Z,38.23
2018-12-31T22:47:00.557Z,36.13
2018-12-31T22:49:26.928Z,35.83
2018-12-31T22:51:53.378Z,36.67
2018-12-31T22:54:19.798Z,34.50
2018-12-31T22:56:46.206Z,35.53
2018-12-31T22:59:13.063Z,46.30
2018-12-31T23:01:39.413Z,41.37
2018-12-31T23:04:06.155Z,276.97
2018-12-31T23:06:32.929Z,291.80
2018-12-31T23:08:59.355Z,271.27
2018-12-31T23:11:25.724Z,365.77
2018-12-31T23:13:52.640Z,430.53
2018-12-31T23:16:19.516Z,497.17
2018-12-31T23:18:45.934Z,378.63
2018-12-31T23:21:12.403Z,364.87
2018-12-31T23:23:38.812Z,253.43
2018-12-31T23:26:05.444Z,255.40
2018-12-31T23:28:32.219Z,208.40
2018-12-31T23:30:58.713Z,160.10
2018-12-31T23:33:25.121Z,149.83
2018-12-31T23:35:51.945Z,149.93
2018-12-31T23:38:18.464Z,142.33
2018-12-31T23:40:45.507Z,126.43
2018-12-31T23:43:11.907Z,115.27
2018-12-31T23:45:38.554Z,145.43
2018-12-31T23:48:04.957Z,159.13
2018-12-31T23:50:31.687Z,100.07
2018-12-31T23:52:58.487Z,77.27
2018-12-31T23:55:24.996Z,76.37
2018-12-31T23:57:51.387Z,71.03
